sensor_id;sensor_type;location;lat;lon;timestamp;pressure;altitude;pressure_sealevel;temperature;humidity
44079;BME280;29744;49.078;12.878;2023-05-12T00:02:56;96158.00;;;15.18;40.02
44079;BME280;29744;49.078;12.878;2023-05-12T00:07:56;96159.13;;;15.17;40.00
44079;BME280;29744;49.078;12.878;2023-05-12T00:12:56;96157.22;;;15.17;40.13
44079;BME280;29744;49.078;12.878;2023-05-12T00:17:57;96159.91;;;15.17;40.00
44079;BME280;29744;49.078;12.878;2023-05-12T00:22:57;96149.91;;;15.18;40.09
44079;BME280;29744;49.078;12.878;2023-05-12T00:27:57;96154.53;;;15.17;39.85
44079;BME280;29744;49.078;12.878;2023-05-12T00:32:58;96150.25;;;15.16;39.96
44079;BME280;29744;49.078;12.878;2023-05-12T00:37:58;96149.13;;;15.17;40.12
44079;BME280;29744;49.078;12.878;2023-05-12T00:42:58;96144.50;;;15.18;39.89
44079;BME280;29744;49.078;12.878;2023-05-12T00:47:58;96148.34;;;15.17;40.16
44079;BME280;29744;49.078;12.878;2023-05-12T00:53:00;96145.63;;;15.17;40.44
44079;BME280;29744;49.078;12.878;2023-05-12T00:58:01;96149.13;;;15.17;39.82
44079;BME280;29744;49.078;12.878;2023-05-12T01:03:02;96139.44;;;15.16;40.33
44079;BME280;29744;49.078;12.878;2023-05-12T01:08:03;96142.13;;;15.16;40.20
44079;BME280;29744;49.078;12.878;2023-05-12T01:13:05;96139.44;;;15.16;39.82
44079;BME280;29744;49.078;12.878;2023-05-12T01:18:05;96141.34;;;15.16;40.02
44079;BME280;29744;49.078;12.878;2023-05-12T01:23:06;96147.53;;;15.16;40.03
44079;BME280;29744;49.078;12.878;2023-05-12T01:28:07;96143.25;;;15.15;39.95
44079;BME280;29744;49.078;12.878;2023-05-12T01:33:08;96150.56;;;15.14;39.77
44079;BME280;29744;49.078;12.878;2023-05-12T01:38:08;96150.56;;;15.14;39.82
44079;BME280;29744;49.078;12.878;2023-05-12T01:43:08;96156.78;;;15.15;40.17
44079;BME280;29744;49.078;12.878;2023-05-12T01:48:08;96149.44;;;15.16;40.20
44079;BME280;29744;49.078;12.878;2023-05-12T01:53:09;96149.00;;;15.13;40.32
44079;BME280;29744;49.078;12.878;2023-05-12T01:58:09;96153.28;;;15.14;39.79
44079;BME280;29744;49.078;12.878;2023-05-12T02:03:09;96154.06;;;15.15;39.90
44079;BME280;29744;49.078;12.878;2023-05-12T02:08:10;96150.56;;;15.14;40.16
44079;BME280;29744;49.078;12.878;2023-05-12T02:13:11;96145.19;;;15.14;40.26
44079;BME280;29744;49.078;12.878;2023-05-12T02:18:11;96146.75;;;15.16;40.32
44079;BME280;29744;49.078;12.878;2023-05-12T02:23:11;96144.38;;;15.14;40.15
44079;BME280;29744;49.078;12.878;2023-05-12T02:28:11;96133.59;;;15.14;40.17
44079;BME280;29744;49.078;12.878;2023-05-12T02:33:12;96137.06;;;15.14;40.11
44079;BME280;29744;49.078;12.878;2023-05-12T02:38:12;96133.59;;;15.14;40.00
44079;BME280;29744;49.078;12.878;2023-05-12T02:43:15;96133.59;;;15.14;40.14
44079;BME280;29744;49.078;12.878;2023-05-12T02:48:15;96130.88;;;15.14;40.46
44079;BME280;29744;49.078;12.878;2023-05-12T02:53:15;96130.88;;;15.14;40.17
44079;BME280;29744;49.078;12.878;2023-05-12T02:58:16;96130.88;;;15.14;40.12
44079;BME280;29744;49.078;12.878;2023-05-12T03:03:16;96128.19;;;15.14;40.01
44079;BME280;29744;49.078;12.878;2023-05-12T03:08:16;96143.59;;;15.13;40.39
44079;BME280;29744;49.078;12.878;2023-05-12T03:13:16;96138.19;;;15.13;39.87
44079;BME280;29744;49.078;12.878;2023-05-12T03:18:17;96133.59;;;15.14;40.14
44079;BME280;29744;49.078;12.878;2023-05-12T03:23:17;96142.03;;;15.12;40.39
44079;BME280;29744;49.078;12.878;2023-05-12T03:28:17;96137.41;;;15.13;40.14
44079;BME280;29744;49.078;12.878;2023-05-12T03:33:18;96133.13;;;15.12;40.15
44079;BME280;29744;49.078;12.878;2023-05-12T03:38:18;96141.22;;;15.12;40.14
44079;BME280;29744;49.078;12.878;2023-05-12T03:43:18;96139.31;;;15.12;39.83
44079;BME280;29744;49.078;12.878;2023-05-12T03:48:20;96146.63;;;15.12;40.07
44079;BME280;29744;49.078;12.878;2023-05-12T03:53:20;96143.16;;;15.11;39.91
44079;BME280;29744;49.078;12.878;2023-05-12T03:58:23;96143.94;;;15.12;39.79
44079;BME280;29744;49.078;12.878;2023-05-12T04:03:24;96151.25;;;15.11;39.75
44079;BME280;29744;49.078;12.878;2023-05-12T04:08:24;96149.34;;;15.12;40.41
44079;BME280;29744;49.078;12.878;2023-05-12T04:13:25;96145.84;;;15.11;40.18
44079;BME280;29744;49.078;12.878;2023-05-12T04:18:26;96145.84;;;15.11;39.75
44079;BME280;29744;49.078;12.878;2023-05-12T04:23:27;96153.94;;;15.11;39.99
44079;BME280;29744;49.078;12.878;2023-05-12T04:28:27;96162.84;;;15.12;39.89
44079;BME280;29744;49.078;12.878;2023-05-12T04:33:28;96168.25;;;15.12;40.22
44079;BME280;29744;49.078;12.878;2023-05-12T04:38:28;96166.66;;;15.11;40.07
44079;BME280;29744;49.078;12.878;2023-05-12T04:43:28;96170.94;;;15.12;39.92
44079;BME280;29744;49.078;12.878;2023-05-12T04:48:29;96183.66;;;15.11;40.28
44079;BME280;29744;49.078;12.878;2023-05-12T04:53:29;96172.84;;;15.11;40.20
44079;BME280;29744;49.078;12.878;2023-05-12T04:58:33;96174.75;;;15.11;40.21
44079;BME280;29744;49.078;12.878;2023-05-12T05:03:33;96178.25;;;15.11;40.08
44079;BME280;29744;49.078;12.878;2023-05-12T05:08:34;96177.47;;;15.11;40.19
44079;BME280;29744;49.078;12.878;2023-05-12T05:13:34;96181.75;;;15.12;40.08
44079;BME280;29744;49.078;12.878;2023-05-12T05:18:35;96183.66;;;15.11;40.17
44079;BME280;29744;49.078;12.878;2023-05-12T05:23:36;96196.81;;;15.13;40.20
44079;BME280;29744;49.078;12.878;2023-05-12T05:28:37;96197.63;;;15.13;40.14
44079;BME280;29744;49.078;12.878;2023-05-12T05:33:38;96203.03;;;15.13;40.00
44079;BME280;29744;49.078;12.878;2023-05-12T05:38:39;96204.94;;;15.13;40.30
44079;BME280;29744;49.078;12.878;2023-05-12T05:43:39;96207.63;;;15.13;39.96
44079;BME280;29744;49.078;12.878;2023-05-12T05:48:39;96205.72;;;15.13;40.10
44079;BME280;29744;49.078;12.878;2023-05-12T05:53:40;96205.72;;;15.13;40.15
44079;BME280;29744;49.078;12.878;2023-05-12T05:58:40;96211.13;;;15.13;40.33
44079;BME280;29744;49.078;12.878;2023-05-12T06:03:40;96213.50;;;15.15;40.24
44079;BME280;29744;49.078;12.878;2023-05-12T06:08:40;96213.81;;;15.13;40.13
44079;BME280;29744;49.078;12.878;2023-05-12T06:13:41;96217.31;;;15.14;40.18
44079;BME280;29744;49.078;12.878;2023-05-12T06:18:41;96229.69;;;15.15;40.02
44079;BME280;29744;49.078;12.878;2023-05-12T06:23:41;96229.69;;;15.15;39.93
44079;BME280;29744;49.078;12.878;2023-05-12T06:28:42;96229.69;;;15.15;39.99
44079;BME280;29744;49.078;12.878;2023-05-12T06:33:42;96238.59;;;15.16;39.96
44079;BME280;29744;49.078;12.878;2023-05-12T06:38:42;96236.69;;;15.16;39.97
44079;BME280;29744;49.078;12.878;2023-05-12T06:43:42;96239.38;;;15.16;40.34
44079;BME280;29744;49.078;12.878;2023-05-12T06:48:43;96234.44;;;15.18;40.32
44079;BME280;29744;49.078;12.878;2023-05-12T06:53:43;96237.13;;;15.18;39.96
44079;BME280;29744;49.078;12.878;2023-05-12T06:58:44;96233.31;;;15.19;39.80
44079;BME280;29744;49.078;12.878;2023-05-12T07:03:45;96233.31;;;15.19;39.74
44079;BME280;29744;49.078;12.878;2023-05-12T07:08:45;96239.50;;;15.20;40.48
44079;BME280;29744;49.078;12.878;2023-05-12T07:13:46;96246.16;;;15.22;40.36
44079;BME280;29744;49.078;12.878;2023-05-12T07:18:47;96239.41;;;15.28;40.57
44079;BME280;29744;49.078;12.878;2023-05-12T07:23:47;96233.34;;;15.31;40.38
44079;BME280;29744;49.078;12.878;2023-05-12T07:28:47;96242.03;;;15.37;40.55
44079;BME280;29744;49.078;12.878;2023-05-12T07:33:48;96239.13;;;15.42;40.46
44079;BME280;29744;49.078;12.878;2023-05-12T07:38:48;96233.84;;;15.45;40.77
44079;BME280;29744;49.078;12.878;2023-05-12T07:43:48;96235.53;;;15.50;40.94
44079;BME280;29744;49.078;12.878;2023-05-12T07:48:49;96243.78;;;15.54;40.80
44079;BME280;29744;49.078;12.878;2023-05-12T07:53:49;96241.97;;;15.58;40.52
44079;BME280;29744;49.078;12.878;2023-05-12T07:58:50;96249.41;;;15.61;41.11
44079;BME280;29744;49.078;12.878;2023-05-12T08:03:50;96250.31;;;15.65;41.12
44079;BME280;29744;49.078;12.878;2023-05-12T08:08:50;96250.44;;;15.68;40.63
44079;BME280;29744;49.078;12.878;2023-05-12T08:13:51;96250.91;;;15.70;40.91
44079;BME280;29744;49.078;12.878;2023-05-12T08:18:51;96254.84;;;15.73;40.76
44079;BME280;29744;49.078;12.878;2023-05-12T08:23:51;96256.88;;;15.76;40.65
44079;BME280;29744;49.078;12.878;2023-05-12T08:28:52;96262.75;;;15.78;40.66
44079;BME280;29744;49.078;12.878;2023-05-12T08:33:52;96249.72;;;15.80;41.16
44079;BME280;29744;49.078;12.878;2023-05-12T08:38:52;96250.16;;;15.82;40.92
44079;BME280;29744;49.078;12.878;2023-05-12T08:43:55;96254.91;;;15.85;41.05
44079;BME280;29744;49.078;12.878;2023-05-12T08:48:58;96262.78;;;15.90;41.12
44079;BME280;29744;49.078;12.878;2023-05-12T08:54:00;96261.00;;;15.94;40.98
44079;BME280;29744;49.078;12.878;2023-05-12T08:59:03;96262.69;;;15.99;41.20
44079;BME280;29744;49.078;12.878;2023-05-12T09:04:05;96269.00;;;16.03;41.48
44079;BME280;29744;49.078;12.878;2023-05-12T09:09:06;96271.81;;;16.06;41.18
44079;BME280;29744;49.078;12.878;2023-05-12T09:14:33;96268.78;;;16.08;41.15
44079;BME280;29744;49.078;12.878;2023-05-12T09:19:34;96269.44;;;16.05;41.54
44079;BME280;29744;49.078;12.878;2023-05-12T09:24:38;96275.44;;;16.10;40.96
44079;BME280;29744;49.078;12.878;2023-05-12T09:29:56;96277.69;;;16.08;40.79
44079;BME280;29744;49.078;12.878;2023-05-12T09:35:01;96268.78;;;16.08;40.96
44079;BME280;29744;49.078;12.878;2023-05-12T09:40:04;96274.53;;;16.06;40.60
44079;BME280;29744;49.078;12.878;2023-05-12T09:45:06;96274.06;;;16.04;41.08
44079;BME280;29744;49.078;12.878;2023-05-12T09:50:09;96280.16;;;16.01;40.85
44079;BME280;29744;49.078;12.878;2023-05-12T09:55:11;96279.69;;;15.99;40.63
44079;BME280;29744;49.078;12.878;2023-05-12T10:00:13;96276.53;;;15.97;40.82
44079;BME280;29744;49.078;12.878;2023-05-12T10:05:16;96282.28;;;15.96;40.55
44079;BME280;29744;49.078;12.878;2023-05-12T10:10:20;96274.50;;;15.94;40.65
44079;BME280;29744;49.078;12.878;2023-05-12T10:15:22;96274.06;;;15.92;40.93
44079;BME280;29744;49.078;12.878;2023-05-12T10:20:26;96282.50;;;15.91;40.42
44079;BME280;29744;49.078;12.878;2023-05-12T10:25:27;96284.75;;;15.89;40.93
44079;BME280;29744;49.078;12.878;2023-05-12T10:30:28;96285.88;;;15.88;40.68
44079;BME280;29744;49.078;12.878;2023-05-12T10:35:36;96291.19;;;15.84;40.59
44079;BME280;29744;49.078;12.878;2023-05-12T10:40:50;96305.03;;;15.83;40.77
44079;BME280;29744;49.078;12.878;2023-05-12T10:51:18;96307.91;;;15.77;40.52
44079;BME280;29744;49.078;12.878;2023-05-12T10:56:23;96302.06;;;15.75;40.40
44079;BME280;29744;49.078;12.878;2023-05-12T11:01:24;96299.34;;;15.75;40.63
44079;BME280;29744;49.078;12.878;2023-05-12T11:06:24;96299.34;;;15.75;40.61
44079;BME280;29744;49.078;12.878;2023-05-12T11:11:28;96296.66;;;15.75;40.62
44079;BME280;29744;49.078;12.878;2023-05-12T11:16:28;96295.84;;;15.75;40.73
44079;BME280;29744;49.078;12.878;2023-05-12T11:21:31;96297.78;;;15.74;40.47
44079;BME280;29744;49.078;12.878;2023-05-12T11:26:32;96291.56;;;15.74;40.79
44079;BME280;29744;49.078;12.878;2023-05-12T11:31:33;96292.69;;;15.73;40.78
44079;BME280;29744;49.078;12.878;2023-05-12T11:36:41;96296.84;;;15.70;40.77
44079;BME280;29744;49.078;12.878;2023-05-12T11:41:42;96303.38;;;15.69;40.28
44079;BME280;29744;49.078;12.878;2023-05-12T11:46:59;96302.47;;;15.65;40.51
44079;BME280;29744;49.078;12.878;2023-05-12T11:52:01;96302.56;;;15.57;40.80
44079;BME280;29744;49.078;12.878;2023-05-12T11:57:02;96316.66;;;15.62;40.53
44079;BME280;29744;49.078;12.878;2023-05-12T12:02:03;96319.03;;;15.64;40.56
44079;BME280;29744;49.078;12.878;2023-05-12T12:07:04;96313.97;;;15.62;40.38
44079;BME280;29744;49.078;12.878;2023-05-12T12:12:06;96322.84;;;15.63;40.74
44079;BME280;29744;49.078;12.878;2023-05-12T12:17:07;96332.09;;;15.62;40.29
44079;BME280;29744;49.078;12.878;2023-05-12T12:22:07;96337.50;;;15.62;40.25
44079;BME280;29744;49.078;12.878;2023-05-12T12:27:07;96344.03;;;15.61;40.47
44079;BME280;29744;49.078;12.878;2023-05-12T12:32:08;96341.31;;;15.61;40.49
44079;BME280;29744;49.078;12.878;2023-05-12T12:37:08;96344.03;;;15.61;40.23
44079;BME280;29744;49.078;12.878;2023-05-12T12:42:09;96343.56;;;15.59;40.21
44079;BME280;29744;49.078;12.878;2023-05-12T12:47:09;96350.09;;;15.58;40.65
44079;BME280;29744;49.078;12.878;2023-05-12T12:52:09;96350.09;;;15.58;40.41
44079;BME280;29744;49.078;12.878;2023-05-12T12:57:10;96345.47;;;15.58;40.50
44079;BME280;29744;49.078;12.878;2023-05-12T13:02:10;96348.19;;;15.58;40.49
44079;BME280;29744;49.078;12.878;2023-05-12T13:07:10;96351.69;;;15.59;40.31
44079;BME280;29744;49.078;12.878;2023-05-12T13:12:11;96349.75;;;15.59;40.40
44079;BME280;29744;49.078;12.878;2023-05-12T13:17:11;96350.09;;;15.58;40.67
44079;BME280;29744;49.078;12.878;2023-05-12T13:22:11;96349.31;;;15.57;40.61
44079;BME280;29744;49.078;12.878;2023-05-12T13:27:12;96347.41;;;15.58;40.46
44079;BME280;29744;49.078;12.878;2023-05-12T13:32:13;96352.00;;;15.57;40.58
44079;BME280;29744;49.078;12.878;2023-05-12T13:37:14;96356.63;;;15.57;40.09
44079;BME280;29744;49.078;12.878;2023-05-12T13:42:14;96352.34;;;15.56;40.59
44079;BME280;29744;49.078;12.878;2023-05-12T13:47:16;96358.53;;;15.56;40.11
44079;BME280;29744;49.078;12.878;2023-05-12T13:52:17;96365.84;;;15.56;40.42
44079;BME280;29744;49.078;12.878;2023-05-12T13:57:17;96361.56;;;15.55;40.38
44079;BME280;29744;49.078;12.878;2023-05-12T14:02:17;96358.06;;;15.54;40.44
44079;BME280;29744;49.078;12.878;2023-05-12T14:07:18;96366.97;;;15.55;40.07
44079;BME280;29744;49.078;12.878;2023-05-12T14:12:18;96366.19;;;15.54;40.10
44079;BME280;29744;49.078;12.878;2023-05-12T14:17:18;96367.31;;;15.53;40.72
44079;BME280;29744;49.078;12.878;2023-05-12T14:22:18;96368.09;;;15.54;40.12
44079;BME280;29744;49.078;12.878;2023-05-12T14:27:19;96374.63;;;15.53;40.39
44079;BME280;29744;49.078;12.878;2023-05-12T14:32:19;96371.94;;;15.53;40.34
44079;BME280;29744;49.078;12.878;2023-05-12T14:37:19;96372.72;;;15.53;40.32
44079;BME280;29744;49.078;12.878;2023-05-12T14:42:20;96375.41;;;15.53;40.64
44079;BME280;29744;49.078;12.878;2023-05-12T14:47:20;96377.34;;;15.53;40.58
44079;BME280;29744;49.078;12.878;2023-05-12T14:52:20;96368.88;;;15.54;40.46
44079;BME280;29744;49.078;12.878;2023-05-12T14:57:21;96366.19;;;15.54;40.10
44079;BME280;29744;49.078;12.878;2023-05-12T15:02:21;96368.09;;;15.54;40.63
44079;BME280;29744;49.078;12.878;2023-05-12T15:07:21;96376.22;;;15.54;40.32
44079;BME280;29744;49.078;12.878;2023-05-12T15:12:22;96373.84;;;15.52;40.50
44079;BME280;29744;49.078;12.878;2023-05-12T15:17:22;96378.44;;;15.52;40.37
44079;BME280;29744;49.078;12.878;2023-05-12T15:22:22;96380.81;;;15.53;40.08
44079;BME280;29744;49.078;12.878;2023-05-12T15:27:23;96376.22;;;15.54;40.17
44079;BME280;29744;49.078;12.878;2023-05-12T15:32:24;96380.81;;;15.53;40.23
44079;BME280;29744;49.078;12.878;2023-05-12T15:37:24;96380.38;;;15.51;40.40
44079;BME280;29744;49.078;12.878;2023-05-12T15:42:25;96381.16;;;15.52;40.31
44079;BME280;29744;49.078;12.878;2023-05-12T15:47:25;96383.06;;;15.51;39.99
44079;BME280;29744;49.078;12.878;2023-05-12T15:52:26;96387.69;;;15.51;40.39
44079;BME280;29744;49.078;12.878;2023-05-12T15:57:26;96387.69;;;15.51;40.18
44079;BME280;29744;49.078;12.878;2023-05-12T16:02:27;96381.47;;;15.50;40.34
44079;BME280;29744;49.078;12.878;2023-05-12T16:07:27;96378.78;;;15.50;40.44
44079;BME280;29744;49.078;12.878;2023-05-12T16:12:30;96376.41;;;15.49;40.43
44079;BME280;29744;49.078;12.878;2023-05-12T16:17:30;96376.41;;;15.49;40.37
44079;BME280;29744;49.078;12.878;2023-05-12T16:22:30;96371.78;;;15.49;40.34
44079;BME280;29744;49.078;12.878;2023-05-12T16:27:30;96372.91;;;15.48;40.40
44079;BME280;29744;49.078;12.878;2023-05-12T16:32:32;96372.13;;;15.48;40.26
44079;BME280;29744;49.078;12.878;2023-05-12T16:37:32;96370.53;;;15.46;40.22
44079;BME280;29744;49.078;12.878;2023-05-12T16:42:33;96364.69;;;15.44;40.34
44079;BME280;29744;49.078;12.878;2023-05-12T16:47:33;96364.34;;;15.46;40.61
44079;BME280;29744;49.078;12.878;2023-05-12T16:52:33;96367.38;;;15.44;40.36
44079;BME280;29744;49.078;12.878;2023-05-12T16:57:34;96366.59;;;15.44;40.11
44079;BME280;29744;49.078;12.878;2023-05-12T17:02:35;96366.59;;;15.44;40.29
44079;BME280;29744;49.078;12.878;2023-05-12T17:07:35;96367.72;;;15.43;40.32
44079;BME280;29744;49.078;12.878;2023-05-12T17:12:35;96369.63;;;15.42;40.08
44079;BME280;29744;49.078;12.878;2023-05-12T17:17:36;96369.97;;;15.41;40.45
44079;BME280;29744;49.078;12.878;2023-05-12T17:22:37;96370.75;;;15.41;40.12
44079;BME280;29744;49.078;12.878;2023-05-12T17:27:41;96363.75;;;15.40;40.63
44079;BME280;29744;49.078;12.878;2023-05-12T17:32:41;96369.50;;;15.39;40.25
44079;BME280;29744;49.078;12.878;2023-05-12T17:37:42;96385.72;;;15.39;40.11
44079;BME280;29744;49.078;12.878;2023-05-12T17:42:43;96388.75;;;15.37;40.42
44079;BME280;29744;49.078;12.878;2023-05-12T17:47:44;96399.56;;;15.37;40.67
44079;BME280;29744;49.078;12.878;2023-05-12T17:52:44;96396.06;;;15.37;40.72
44079;BME280;29744;49.078;12.878;2023-05-12T17:57:45;96403.38;;;15.36;40.73
44079;BME280;29744;49.078;12.878;2023-05-12T18:02:45;96399.09;;;15.35;40.62
44079;BME280;29744;49.078;12.878;2023-05-12T18:07:46;96411.00;;;15.34;40.19
44079;BME280;29744;49.078;12.878;2023-05-12T18:12:46;96414.50;;;15.35;40.43
44079;BME280;29744;49.078;12.878;2023-05-12T18:17:47;96427.22;;;15.34;40.53
44079;BME280;29744;49.078;12.878;2023-05-12T18:22:47;96441.53;;;15.35;40.70
44079;BME280;29744;49.078;12.878;2023-05-12T18:27:49;96443.44;;;15.34;40.22
44079;BME280;29744;49.078;12.878;2023-05-12T18:32:51;96439.16;;;15.33;40.22
44079;BME280;29744;49.078;12.878;2023-05-12T18:37:51;96436.78;;;15.32;40.58
44079;BME280;29744;49.078;12.878;2023-05-12T18:42:52;96440.28;;;15.32;40.35
44079;BME280;29744;49.078;12.878;2023-05-12T18:47:52;96442.19;;;15.32;40.76
44079;BME280;29744;49.078;12.878;2023-05-12T18:52:53;96436.00;;;15.31;40.23
44079;BME280;29744;49.078;12.878;2023-05-12T18:57:53;96443.31;;;15.31;40.38
44079;BME280;29744;49.078;12.878;2023-05-12T19:02:53;96444.44;;;15.30;40.30
44079;BME280;29744;49.078;12.878;2023-05-12T19:07:54;96449.03;;;15.29;40.52
44079;BME280;29744;49.078;12.878;2023-05-12T19:12:54;96446.34;;;15.29;40.77
44079;BME280;29744;49.078;12.878;2023-05-12T19:17:54;96451.28;;;15.27;40.65
44079;BME280;29744;49.078;12.878;2023-05-12T19:22:54;96463.66;;;15.28;40.43
44079;BME280;29744;49.078;12.878;2023-05-12T19:27:55;96462.88;;;15.28;40.63
44079;BME280;29744;49.078;12.878;2023-05-12T19:32:56;96469.41;;;15.27;40.53
44079;BME280;29744;49.078;12.878;2023-05-12T19:37:56;96469.41;;;15.27;40.59
44079;BME280;29744;49.078;12.878;2023-05-12T19:42:56;96475.13;;;15.25;40.61
44079;BME280;29744;49.078;12.878;2023-05-12T19:47:56;96473.22;;;15.26;40.66
44079;BME280;29744;49.078;12.878;2023-05-12T19:52:57;96471.63;;;15.25;40.31
44079;BME280;29744;49.078;12.878;2023-05-12T19:57:57;96463.53;;;15.25;40.33
44079;BME280;29744;49.078;12.878;2023-05-12T20:02:58;96462.75;;;15.24;40.56
44079;BME280;29744;49.078;12.878;2023-05-12T20:07:58;96454.97;;;15.23;40.29
44079;BME280;29744;49.078;12.878;2023-05-12T20:12:58;96466.56;;;15.23;40.60
44079;BME280;29744;49.078;12.878;2023-05-12T20:18:02;96466.56;;;15.23;40.69
44079;BME280;29744;49.078;12.878;2023-05-12T20:23:02;96462.28;;;15.22;40.48
44079;BME280;29744;49.078;12.878;2023-05-12T20:28:03;96463.06;;;15.23;40.90
44079;BME280;29744;49.078;12.878;2023-05-12T20:33:04;96460.69;;;15.21;40.54
44079;BME280;29744;49.078;12.878;2023-05-12T20:38:04;96458.00;;;15.21;40.31
44079;BME280;29744;49.078;12.878;2023-05-12T20:43:04;96447.19;;;15.21;40.35
44079;BME280;29744;49.078;12.878;2023-05-12T20:48:05;96448.31;;;15.20;40.36
44079;BME280;29744;49.078;12.878;2023-05-12T20:53:05;96434.00;;;15.20;40.77
44079;BME280;29744;49.078;12.878;2023-05-12T20:58:05;96438.28;;;15.21;40.36
44079;BME280;29744;49.078;12.878;2023-05-12T21:03:05;96440.19;;;15.20;40.58
44079;BME280;29744;49.078;12.878;2023-05-12T21:08:06;96446.72;;;15.19;40.98
44079;BME280;29744;49.078;12.878;2023-05-12T21:13:06;96441.31;;;15.19;40.36
44079;BME280;29744;49.078;12.878;2023-05-12T21:18:06;96442.91;;;15.20;40.79
44079;BME280;29744;49.078;12.878;2023-05-12T21:23:07;96437.81;;;15.19;40.46
44079;BME280;29744;49.078;12.878;2023-05-12T21:28:10;96435.13;;;15.19;40.38
44079;BME280;29744;49.078;12.878;2023-05-12T21:33:10;96445.94;;;15.19;40.56
44079;BME280;29744;49.078;12.878;2023-05-12T21:38:11;96445.13;;;15.18;40.31
44079;BME280;29744;49.078;12.878;2023-05-12T21:43:11;96443.56;;;15.17;40.67
44079;BME280;29744;49.078;12.878;2023-05-12T21:48:12;96444.34;;;15.18;40.45
44079;BME280;29744;49.078;12.878;2023-05-12T21:53:12;96445.13;;;15.18;40.98
44079;BME280;29744;49.078;12.878;2023-05-12T21:58:12;96439.72;;;15.18;40.85
44079;BME280;29744;49.078;12.878;2023-05-12T22:03:12;96436.56;;;15.16;40.33
44079;BME280;29744;49.078;12.878;2023-05-12T22:08:13;96436.56;;;15.16;40.56
44079;BME280;29744;49.078;12.878;2023-05-12T22:13:13;96436.56;;;15.16;40.86
44079;BME280;29744;49.078;12.878;2023-05-12T22:18:14;96434.66;;;15.17;40.57
44079;BME280;29744;49.078;12.878;2023-05-12T22:23:14;96432.28;;;15.15;40.93
44079;BME280;29744;49.078;12.878;2023-05-12T22:28:14;96433.06;;;15.16;40.65
44079;BME280;29744;49.078;12.878;2023-05-12T22:33:15;96428.78;;;15.14;40.52
44079;BME280;29744;49.078;12.878;2023-05-12T22:38:15;96432.28;;;15.15;40.91
44079;BME280;29744;49.078;12.878;2023-05-12T22:43:15;96421.47;;;15.15;40.71
44079;BME280;29744;49.078;12.878;2023-05-12T22:48:18;96419.91;;;15.14;40.89
44079;BME280;29744;49.078;12.878;2023-05-12T22:53:18;96422.59;;;15.14;40.91
44079;BME280;29744;49.078;12.878;2023-05-12T22:58:19;96425.31;;;15.14;40.91
44079;BME280;29744;49.078;12.878;2023-05-12T23:03:19;96425.31;;;15.14;40.72
44079;BME280;29744;49.078;12.878;2023-05-12T23:08:20;96411.00;;;15.13;40.35
44079;BME280;29744;49.078;12.878;2023-05-12T23:13:20;96418.31;;;15.13;40.57
44079;BME280;29744;49.078;12.878;2023-05-12T23:18:20;96413.25;;;15.11;40.93
44079;BME280;29744;49.078;12.878;2023-05-12T23:23:20;96423.72;;;15.13;40.89
44079;BME280;29744;49.078;12.878;2023-05-12T23:28:21;96422.94;;;15.12;40.66
44079;BME280;29744;49.078;12.878;2023-05-12T23:33:21;96421.00;;;15.13;40.88
44079;BME280;29744;49.078;12.878;2023-05-12T23:38:21;96408.63;;;15.12;40.66
44079;BME280;29744;49.078;12.878;2023-05-12T23:43:22;96409.75;;;15.11;40.69
44079;BME280;29744;49.078;12.878;2023-05-12T23:48:22;96405.94;;;15.12;40.72
44079;BME280;29744;49.078;12.878;2023-05-12T23:53:23;96396.25;;;15.11;40.66
44079;BME280;29744;49.078;12.878;2023-05-12T23:58:23;96398.16;;;15.10;40.55
